Time;durP1;ratioP1;P1;durP2;ratioP2;P2;SDS_P1;SDS_P2;PMS_P1;PMS_P2;Temp;Humidity;BMP_temperature;BMP_pressure;BME280_temperature;BME280_humidity;BME280_pressure;Samples;Min_cycle;Max_cycle;Signal;HPM_P1;HPM_P2
2022/05/13 00:00:29;;;;;;;7.45;6.05;;;;;;;-143.53;100.00;58366.03;2048513;28;20207;-64
2022/05/13 00:01:31;;;;;;;7.20;5.55;;;;;;;-143.53;100.00;58366.03;2051147;28;20227;-64
2022/05/13 00:02:32;;;;;;;7.53;5.82;;;;;;;-143.53;100.00;58366.03;2048436;28;20286;-64
2022/05/13 00:03:35;;;;;;;14.95;6.45;;;;;;;-143.53;100.00;58366.03;2046943;28;20204;-64
2022/05/13 00:04:38;;;;;;;13.10;5.85;;;;;;;-143.53;100.00;58366.03;2045740;29;20203;-64
2022/05/13 00:05:39;;;;;;;11.50;6.22;;;;;;;-143.53;100.00;58366.03;2047725;29;20216;-64
2022/05/13 00:06:41;;;;;;;8.52;5.70;;;;;;;-143.53;100.00;58366.03;2047423;28;20223;-64
2022/05/13 00:07:42;;;;;;;13.80;5.40;;;;;;;-143.53;100.00;58366.03;2048167;28;20203;-64
2022/05/13 00:08:44;;;;;;;7.68;5.47;;;;;;;-143.53;100.00;58366.03;2047741;29;20199;-65
2022/05/13 00:09:59;;;;;;;10.55;5.05;;;;;;;-143.53;100.00;58366.03;2047676;29;20200;-64
2022/05/13 00:11:02;;;;;;;8.55;5.45;;;;;;;-143.53;100.00;58366.03;2047008;28;20203;-64
2022/05/13 00:12:04;;;;;;;12.20;5.95;;;;;;;-143.53;100.00;58366.03;2047738;28;20219;-64
2022/05/13 00:13:05;;;;;;;9.48;5.65;;;;;;;-143.53;100.00;58366.03;2047738;28;20206;-64
2022/05/13 00:14:08;;;;;;;8.45;5.43;;;;;;;-143.53;100.00;58366.03;2047765;28;20200;-64
2022/05/13 00:15:17;;;;;;;9.10;5.57;;;;;;;-143.53;100.00;58366.03;2048502;29;20688;-64
2022/05/13 00:16:19;;;;;;;9.93;6.07;;;;;;;-143.53;100.00;58366.03;2047597;28;20231;-65
2022/05/13 00:17:22;;;;;;;6.70;4.57;;;;;;;-143.53;100.00;58366.03;2047234;29;20200;-64
2022/05/13 00:18:23;;;;;;;9.50;5.60;;;;;;;-143.53;100.00;58366.03;2047813;28;20204;-64
2022/05/13 00:19:25;;;;;;;9.02;4.80;;;;;;;-143.53;100.00;58366.03;2049179;28;20212;-64
2022/05/13 00:20:28;;;;;;;10.50;5.38;;;;;;;-143.53;100.00;58366.03;2048292;28;20699;-65
2022/05/13 00:21:30;;;;;;;10.40;5.55;;;;;;;-143.53;100.00;58366.03;2047777;28;20223;-64
2022/05/13 00:22:31;;;;;;;9.57;6.35;;;;;;;-143.53;100.00;58366.03;2047706;28;20243;-65
2022/05/13 00:23:33;;;;;;;6.47;4.97;;;;;;;-143.53;100.00;58366.03;2048142;28;20196;-64
2022/05/13 00:24:34;;;;;;;7.93;5.10;;;;;;;-143.53;100.00;58366.03;2047203;28;20203;-64
2022/05/13 00:25:37;;;;;;;12.82;4.93;;;;;;;-143.53;100.00;58366.03;2047368;29;20215;-64
2022/05/13 00:26:39;;;;;;;9.48;5.88;;;;;;;-143.53;100.00;58366.03;2047499;28;20219;-65
2022/05/13 00:27:40;;;;;;;6.97;4.95;;;;;;;-143.53;100.00;58366.03;2048274;28;20707;-65
2022/05/13 00:28:42;;;;;;;7.65;5.13;;;;;;;-143.53;100.00;58366.03;2048048;28;20209;-65
2022/05/13 00:29:43;;;;;;;6.80;5.10;;;;;;;-143.53;100.00;58366.03;2048416;28;20664;-64
2022/05/13 00:30:48;;;;;;;8.82;5.20;;;;;;;-143.53;100.00;58366.03;2048351;28;20202;-64
2022/05/13 00:31:50;;;;;;;7.90;5.50;;;;;;;-143.53;100.00;58366.03;2047834;28;20224;-64
2022/05/13 00:32:52;;;;;;;7.22;5.55;;;;;;;-143.53;100.00;58366.03;2047515;28;20659;-65
2022/05/13 00:33:53;;;;;;;7.53;5.47;;;;;;;-143.53;100.00;58366.03;2048362;28;20199;-64
2022/05/13 00:34:56;;;;;;;7.10;5.28;;;;;;;-143.53;100.00;58366.03;2048251;28;20676;-64
2022/05/13 00:35:57;;;;;;;11.48;5.70;;;;;;;-143.53;100.00;58366.03;2046650;28;20192;-64
2022/05/13 00:36:59;;;;;;;8.80;5.38;;;;;;;-143.53;100.00;58366.03;2048180;28;20203;-64
2022/05/13 00:38:01;;;;;;;8.77;5.72;;;;;;;-143.53;100.00;58366.03;2047957;28;20222;-64
2022/05/13 00:39:06;;;;;;;11.63;5.95;;;;;;;-143.53;100.00;58366.03;2046544;28;20207;-65
2022/05/13 00:40:09;;;;;;;11.13;6.65;;;;;;;-143.53;100.00;58366.03;2045824;29;20200;-64
2022/05/13 00:41:11;;;;;;;12.48;5.63;;;;;;;-143.53;100.00;58366.03;2047592;28;20254;-65
2022/05/13 00:42:17;;;;;;;7.35;4.88;;;;;;;-143.53;100.00;58366.03;2046000;28;20196;-64
2022/05/13 00:43:49;;;;;;;27.00;6.10;;;;;;;-143.53;100.00;58366.03;2045836;29;20231;-65
2022/05/13 00:44:51;;;;;;;8.80;5.20;;;;;;;-143.53;100.00;58366.03;2048099;28;20579;-64
2022/05/13 00:45:52;;;;;;;7.18;5.10;;;;;;;-143.53;100.00;58366.03;2047686;28;20219;-64
2022/05/13 00:46:54;;;;;;;11.15;4.60;;;;;;;-143.53;100.00;58366.03;2047739;29;20203;-65
2022/05/13 00:47:55;;;;;;;8.02;4.63;;;;;;;-143.53;100.00;58366.03;2047451;29;20231;-64
2022/05/13 00:49:01;;;;;;;8.02;6.20;;;;;;;-143.53;100.00;58366.03;2047070;29;20199;-64
2022/05/13 00:50:04;;;;;;;8.55;5.40;;;;;;;-143.53;100.00;58366.03;2047902;29;20208;-64
2022/05/13 00:51:08;;;;;;;7.07;5.05;;;;;;;-143.53;100.00;58366.03;2047156;28;20200;-65
2022/05/13 00:52:11;;;;;;;7.80;4.60;;;;;;;-143.53;100.00;58366.03;2046331;29;20211;-64
2022/05/13 00:53:12;;;;;;;7.13;5.18;;;;;;;-143.53;100.00;58366.03;2048181;28;20207;-65
2022/05/13 00:54:16;;;;;;;10.05;5.25;;;;;;;-143.53;100.00;58366.03;2048032;28;20204;-64
2022/05/13 00:55:26;;;;;;;7.50;5.07;;;;;;;-143.53;100.00;58366.03;2048160;28;20207;-64
2022/05/13 00:56:27;;;;;;;9.65;5.28;;;;;;;-143.53;100.00;58366.03;2046331;28;20235;-63
2022/05/13 00:57:31;;;;;;;8.35;5.10;;;;;;;-143.53;100.00;58366.03;2048025;28;20305;-62
2022/05/13 00:58:36;;;;;;;13.10;5.90;;;;;;;-143.53;100.00;58366.03;2047887;28;20206;-62
2022/05/13 00:59:40;;;;;;;6.82;5.97;;;;;;;-143.53;100.00;58366.03;2047822;28;20199;-62
2022/05/13 01:00:41;;;;;;;6.80;4.70;;;;;;;-143.53;100.00;58366.03;2047761;28;20230;-62
2022/05/13 01:01:42;;;;;;;10.15;6.13;;;;;;;-143.53;100.00;58366.03;2047539;28;20234;-63
2022/05/13 01:02:45;;;;;;;15.00;5.82;;;;;;;-143.53;100.00;58366.03;2048020;28;20684;-62
2022/05/13 01:03:50;;;;;;;6.47;4.90;;;;;;;-143.53;100.00;58366.03;2047032;29;20203;-62
2022/05/13 01:04:51;;;;;;;14.63;5.57;;;;;;;-143.53;100.00;58366.03;2047446;29;20659;-62
2022/05/13 01:05:57;;;;;;;14.43;6.18;;;;;;;-143.53;100.00;58366.03;2046610;28;20717;-62
2022/05/13 01:07:04;;;;;;;11.07;6.38;;;;;;;-143.53;100.00;58366.03;2047944;28;20658;-61
2022/05/13 01:08:07;;;;;;;17.10;5.75;;;;;;;-143.53;100.00;58366.03;2047308;29;20195;-61
2022/05/13 01:09:09;;;;;;;13.20;6.55;;;;;;;-143.53;100.00;58366.03;2047908;29;20700;-61
2022/05/13 01:10:19;;;;;;;17.40;6.18;;;;;;;-143.53;100.00;58366.03;2047400;29;20196;-61
2022/05/13 01:11:25;;;;;;;10.95;5.50;;;;;;;-143.53;100.00;58366.03;2045675;28;20227;-61
2022/05/13 01:12:34;;;;;;;12.18;5.80;;;;;;;-143.53;100.00;58366.03;2047721;28;20203;-60
2022/05/13 01:13:37;;;;;;;15.75;6.03;;;;;;;-143.53;100.00;58366.03;2047936;28;20731;-61
2022/05/13 01:14:49;;;;;;;9.70;5.95;;;;;;;-143.53;100.00;58366.03;2045929;29;20207;-61
2022/05/13 01:15:51;;;;;;;19.13;6.22;;;;;;;-143.53;100.00;58366.03;2046255;28;20192;-61
2022/05/13 01:18:12;;;;;;;17.05;5.70;;;;;;;-143.53;100.00;58366.03;2047878;28;20677;-61
2022/05/13 01:19:18;;;;;;;11.35;5.00;;;;;;;-143.53;100.00;58366.03;2046673;29;20202;-61
2022/05/13 01:20:26;;;;;;;7.95;6.05;;;;;;;-143.53;100.00;58366.03;2047734;28;20213;-61
2022/05/13 01:21:29;;;;;;;11.10;5.72;;;;;;;-143.53;100.00;58366.03;2047129;28;20222;-61
2022/05/13 01:22:42;;;;;;;12.38;5.68;;;;;;;-143.53;100.00;58366.03;2047220;28;20339;-61
2022/05/13 01:23:45;;;;;;;18.45;5.97;;;;;;;-143.53;100.00;58366.03;2047410;29;20246;-61
2022/05/13 01:24:46;;;;;;;15.07;5.90;;;;;;;-143.53;100.00;58366.03;2047845;28;20200;-61
2022/05/13 01:25:56;;;;;;;9.68;5.30;;;;;;;-143.53;100.00;58366.03;2047568;28;20204;-61
2022/05/13 01:26:57;;;;;;;8.02;5.50;;;;;;;-143.53;100.00;58366.03;2047520;28;20224;-60
2022/05/13 01:28:11;;;;;;;8.40;5.78;;;;;;;-143.53;100.00;58366.03;2047832;28;20211;-61
2022/05/13 01:29:13;;;;;;;10.05;5.65;;;;;;;-143.53;100.00;58366.03;2047693;29;20191;-60
2022/05/13 01:30:21;;;;;;;11.38;6.00;;;;;;;-143.53;100.00;58366.03;2046186;29;20192;-61
2022/05/13 01:31:32;;;;;;;8.15;5.55;;;;;;;-143.53;100.00;58366.03;2046996;28;20696;-61
2022/05/13 01:32:34;;;;;;;9.23;4.90;;;;;;;-143.53;100.00;58366.03;2047080;29;20210;-61
2022/05/13 01:33:36;;;;;;;10.05;5.72;;;;;;;-143.53;100.00;58366.03;2047643;28;20407;-61
2022/05/13 01:34:37;;;;;;;8.68;4.63;;;;;;;-143.53;100.00;58366.03;2047395;29;20251;-61
2022/05/13 01:35:42;;;;;;;11.23;4.57;;;;;;;-143.53;100.00;58366.03;2047240;28;20206;-61
2022/05/13 01:36:43;;;;;;;7.97;4.93;;;;;;;-143.53;100.00;58366.03;2046850;28;20223;-60
2022/05/13 01:37:45;;;;;;;9.50;5.15;;;;;;;-143.53;100.00;58366.03;2047330;28;20200;-60
2022/05/13 01:38:47;;;;;;;6.47;5.38;;;;;;;-143.53;100.00;58366.03;2047600;28;20196;-61
2022/05/13 01:39:49;;;;;;;7.90;4.35;;;;;;;-143.53;100.00;58366.03;2046291;29;20196;-61
2022/05/13 01:40:51;;;;;;;11.00;5.25;;;;;;;-143.53;100.00;58366.03;2046140;28;20195;-61
2022/05/13 01:41:53;;;;;;;8.15;5.55;;;;;;;-143.53;100.00;58366.03;2046765;29;20649;-62
2022/05/13 01:42:55;;;;;;;8.27;5.57;;;;;;;-143.53;100.00;58366.03;2047105;28;20196;-61
2022/05/13 01:43:57;;;;;;;9.27;5.45;;;;;;;-143.53;100.00;58366.03;2047354;28;20569;-61
2022/05/13 01:44:59;;;;;;;8.20;5.18;;;;;;;-143.53;100.00;58366.03;2047112;28;20204;-61
2022/05/13 01:46:01;;;;;;;6.95;5.05;;;;;;;-143.53;100.00;58366.03;2046147;28;20200;-60
2022/05/13 01:47:03;;;;;;;11.98;5.05;;;;;;;-143.53;100.00;58366.03;2046933;28;20686;-61
2022/05/13 01:48:06;;;;;;;13.40;5.50;;;;;;;-143.53;100.00;58366.03;2046897;28;20196;-61
2022/05/13 01:49:08;;;;;;;6.63;4.80;;;;;;;-143.53;100.00;58366.03;2047371;28;20685;-61
2022/05/13 01:50:10;;;;;;;5.68;4.32;;;;;;;-143.53;100.00;58366.03;2047602;28;20203;-61
2022/05/13 01:51:13;;;;;;;8.98;4.75;;;;;;;-143.53;100.00;58366.03;2046256;28;20270;-61
2022/05/13 01:52:14;;;;;;;6.75;4.78;;;;;;;-143.53;100.00;58366.03;2047366;29;20559;-61
2022/05/13 01:53:16;;;;;;;10.18;5.45;;;;;;;-143.53;100.00;58366.03;2046551;28;20204;-61
2022/05/13 01:54:17;;;;;;;6.97;4.75;;;;;;;-143.53;100.00;58366.03;2046682;28;20195;-61
2022/05/13 01:55:19;;;;;;;11.80;5.47;;;;;;;-143.53;100.00;58366.03;2047305;29;20203;-60
2022/05/13 01:56:21;;;;;;;12.73;5.15;;;;;;;-143.53;100.00;58366.03;2046679;28;20490;-60
2022/05/13 01:57:23;;;;;;;10.50;5.32;;;;;;;-143.53;100.00;58366.03;2047577;28;20618;-60
2022/05/13 01:58:25;;;;;;;10.50;5.75;;;;;;;-143.53;100.00;58366.03;2047637;28;20219;-59
2022/05/13 01:59:26;;;;;;;9.45;6.00;;;;;;;-143.53;100.00;58366.03;2046664;29;20211;-59
2022/05/13 02:00:28;;;;;;;10.30;5.55;;;;;;;-143.53;100.00;58366.03;2047702;28;20222;-58
2022/05/13 02:01:30;;;;;;;11.13;6.15;;;;;;;-143.53;100.00;58366.03;2047097;28;20224;-59
2022/05/13 02:03:43;;;;;;;8.80;5.93;;;;;;;-143.53;100.00;58366.03;2047541;28;20568;-59
2022/05/13 02:03:53;;;;;;;14.60;5.35;;;;;;;-143.53;100.00;58366.03;2047002;29;20208;-59
2022/05/13 02:04:54;;;;;;;11.80;6.32;;;;;;;-143.53;100.00;58366.03;2046763;28;20206;-60
2022/05/13 02:05:56;;;;;;;13.73;7.20;;;;;;;-143.53;100.00;58366.03;2046135;28;20207;-59
2022/05/13 02:06:58;;;;;;;12.95;7.30;;;;;;;-143.53;100.00;58366.03;2047082;29;20207;-59
2022/05/13 02:07:59;;;;;;;13.82;6.93;;;;;;;-143.53;100.00;58366.03;2047505;28;20199;-59
2022/05/13 02:09:01;;;;;;;11.88;7.00;;;;;;;-143.53;100.00;58366.03;2046490;28;20204;-59
2022/05/13 02:10:02;;;;;;;10.98;7.03;;;;;;;-143.53;100.00;58366.03;2046413;28;20211;-59
2022/05/13 02:11:04;;;;;;;11.00;6.88;;;;;;;-143.53;100.00;58366.03;2046937;28;20199;-60
2022/05/13 02:12:07;;;;;;;13.80;7.53;;;;;;;-143.53;100.00;58366.03;2047599;28;20196;-60
2022/05/13 02:13:08;;;;;;;10.75;7.18;;;;;;;-143.53;100.00;58366.03;2047266;29;20562;-60
2022/05/13 02:14:10;;;;;;;11.77;7.47;;;;;;;-143.53;100.00;58366.03;2047526;28;20203;-60
2022/05/13 02:15:12;;;;;;;9.73;6.82;;;;;;;-143.53;100.00;58366.03;2045982;28;20208;-60
2022/05/13 02:16:14;;;;;;;14.52;7.80;;;;;;;-143.53;100.00;58366.03;2044930;28;20223;-60
2022/05/13 02:17:15;;;;;;;16.75;7.57;;;;;;;-143.53;100.00;58366.03;2046090;29;20200;-60
2022/05/13 02:18:17;;;;;;;16.45;7.85;;;;;;;-143.53;100.00;58366.03;2046578;28;20254;-60
2022/05/13 02:19:18;;;;;;;10.25;7.90;;;;;;;-143.53;100.00;58366.03;2046262;29;20208;-60
2022/05/13 02:20:21;;;;;;;12.05;7.43;;;;;;;-143.53;100.00;58366.03;2045443;29;20570;-60
2022/05/13 02:21:22;;;;;;;12.73;7.63;;;;;;;-143.53;100.00;58366.03;2046295;28;20246;-60
2022/05/13 02:22:24;;;;;;;13.27;7.45;;;;;;;-143.53;100.00;58366.03;2046991;28;20231;-61
2022/05/13 02:23:26;;;;;;;10.27;6.85;;;;;;;-143.53;100.00;58366.03;2047406;28;20556;-61
2022/05/13 02:24:27;;;;;;;13.27;7.30;;;;;;;-143.53;100.00;58366.03;2047311;28;20203;-60
2022/05/13 02:25:33;;;;;;;12.65;8.07;;;;;;;-143.53;100.00;58366.03;2047429;28;20207;-60
2022/05/13 02:26:34;;;;;;;11.40;7.70;;;;;;;-143.53;100.00;58366.03;2046208;28;20227;-61
2022/05/13 02:27:36;;;;;;;11.18;7.43;;;;;;;-143.53;100.00;58366.03;2047594;28;20204;-61
2022/05/13 02:28:38;;;;;;;14.18;8.32;;;;;;;-143.53;100.00;58366.03;2047504;28;20218;-61
2022/05/13 02:29:39;;;;;;;13.02;8.05;;;;;;;-143.53;100.00;58366.03;2047502;28;20207;-61
2022/05/13 02:30:41;;;;;;;22.35;8.10;;;;;;;-143.53;100.00;58366.03;2047513;28;20698;-61
2022/05/13 02:31:42;;;;;;;11.43;7.45;;;;;;;-143.53;100.00;58366.03;2046482;28;20231;-61
2022/05/13 02:32:44;;;;;;;15.18;8.07;;;;;;;-143.53;100.00;58366.03;2047309;28;20206;-60
2022/05/13 02:33:45;;;;;;;19.40;8.20;;;;;;;-143.53;100.00;58366.03;2046971;29;20207;-61
2022/05/13 02:34:47;;;;;;;15.70;8.30;;;;;;;-143.53;100.00;58366.03;2047343;28;20199;-62
2022/05/13 02:35:49;;;;;;;13.68;7.35;;;;;;;-143.53;100.00;58366.03;2046953;29;20211;-61
2022/05/13 02:36:50;;;;;;;14.70;7.53;;;;;;;-143.53;100.00;58366.03;2029446;29;20224;-61
2022/05/13 02:37:52;;;;;;;15.70;8.07;;;;;;;-143.53;100.00;58366.03;2038980;29;20275;-61
2022/05/13 02:38:53;;;;;;;12.45;7.50;;;;;;;-143.53;100.00;58366.03;2047305;28;20218;-61
2022/05/13 02:39:55;;;;;;;19.70;7.55;;;;;;;-143.53;100.00;58366.03;2046377;28;20203;-61
2022/05/13 02:41:12;;;;;;;12.88;6.90;;;;;;;-143.53;100.00;58366.03;2044555;28;20211;-61
2022/05/13 02:42:14;;;;;;;12.25;7.75;;;;;;;-143.53;100.00;58366.03;2046736;29;20203;-61
2022/05/13 02:43:16;;;;;;;10.40;7.18;;;;;;;-143.53;100.00;58366.03;2047201;28;20231;-61
2022/05/13 02:44:18;;;;;;;13.18;7.93;;;;;;;-143.53;100.00;58366.03;2044155;29;20202;-61
2022/05/13 02:45:20;;;;;;;14.70;8.23;;;;;;;-143.53;100.00;58366.03;2045368;28;20207;-61
2022/05/13 02:46:24;;;;;;;10.15;7.60;;;;;;;-143.53;100.00;58366.03;2045579;28;20235;-61
2022/05/13 02:47:26;;;;;;;12.30;8.45;;;;;;;-143.53;100.00;58366.03;2047265;28;20231;-61
2022/05/13 02:48:28;;;;;;;17.95;8.55;;;;;;;-143.53;100.00;58366.03;2046199;28;20200;-62
2022/05/13 02:49:30;;;;;;;11.90;8.05;;;;;;;-143.53;100.00;58366.03;2047173;28;20203;-62
2022/05/13 02:50:31;;;;;;;11.70;7.75;;;;;;;-143.53;100.00;58366.03;2047303;28;20228;-61
2022/05/13 02:51:33;;;;;;;16.55;8.02;;;;;;;-143.53;100.00;58366.03;2045560;28;20227;-62
2022/05/13 02:52:34;;;;;;;10.52;7.85;;;;;;;-143.53;100.00;58366.03;2047316;28;20609;-61
2022/05/13 02:53:36;;;;;;;11.65;7.00;;;;;;;-143.53;100.00;58366.03;2047311;29;20210;-61
2022/05/13 02:54:38;;;;;;;12.40;8.07;;;;;;;-143.53;100.00;58366.03;2047423;28;20192;-61
2022/05/13 02:55:40;;;;;;;12.50;7.68;;;;;;;-143.53;100.00;58366.03;2047474;28;20559;-61
2022/05/13 02:56:43;;;;;;;9.75;7.97;;;;;;;-143.53;100.00;58366.03;2048240;28;20247;-61
2022/05/13 02:57:46;;;;;;;10.48;7.93;;;;;;;-143.53;100.00;58366.03;2048916;28;20199;-62
2022/05/13 02:58:47;;;;;;;12.90;7.75;;;;;;;-143.53;100.00;58366.03;2048850;28;20613;-61
2022/05/13 02:59:49;;;;;;;12.40;7.07;;;;;;;-143.53;100.00;58366.03;2048881;28;20214;-61
2022/05/13 03:00:51;;;;;;;16.85;7.43;;;;;;;-143.53;100.00;58366.03;2048119;28;20199;-61
2022/05/13 03:01:54;;;;;;;8.68;7.20;;;;;;;-143.53;100.00;58366.03;2048905;28;20691;-62
2022/05/13 03:02:56;;;;;;;12.00;6.90;;;;;;;-143.53;100.00;58366.03;2048945;29;20536;-61
2022/05/13 03:03:58;;;;;;;9.57;6.70;;;;;;;-143.53;100.00;58366.03;2048960;28;20932;-61
2022/05/13 03:05:00;;;;;;;10.40;6.13;;;;;;;-143.53;100.00;58366.03;2048886;28;20270;-61
2022/05/13 03:06:01;;;;;;;13.18;8.35;;;;;;;-143.53;100.00;58366.03;2047991;28;20204;-62
2022/05/13 03:07:03;;;;;;;13.18;6.78;;;;;;;-143.53;100.00;58366.03;2048587;28;20610;-61
2022/05/13 03:08:07;;;;;;;12.20;7.40;;;;;;;-143.53;100.00;58366.03;2049454;28;20204;-61
2022/05/13 03:09:09;;;;;;;10.82;6.40;;;;;;;-143.53;100.00;58366.03;2048292;28;20422;-61
2022/05/13 03:10:11;;;;;;;16.00;7.25;;;;;;;-143.53;100.00;58366.03;2048865;28;20192;-62
2022/05/13 03:11:14;;;;;;;12.75;7.95;;;;;;;-143.53;100.00;58366.03;2047748;28;20679;-61
2022/05/13 03:12:17;;;;;;;12.00;7.95;;;;;;;-143.53;100.00;58366.03;2048680;28;20204;-61
2022/05/13 03:13:19;;;;;;;10.90;7.00;;;;;;;-143.53;100.00;58366.03;2048790;28;20203;-61
2022/05/13 03:14:21;;;;;;;12.93;7.53;;;;;;;-143.53;100.00;58366.03;2048711;28;20199;-61
2022/05/13 03:15:22;;;;;;;7.18;5.25;;;;;;;-143.53;100.00;58366.03;2048876;28;20614;-62
2022/05/13 03:16:25;;;;;;;12.23;7.30;;;;;;;-143.53;100.00;58366.03;2047188;28;20267;-62
2022/05/13 03:17:26;;;;;;;10.98;6.85;;;;;;;-143.53;100.00;58366.03;2048029;29;20191;-61
2022/05/13 03:18:28;;;;;;;9.00;6.90;;;;;;;-143.53;100.00;58366.03;2047174;28;20559;-62
2022/05/13 03:19:30;;;;;;;10.55;6.97;;;;;;;-143.53;100.00;58366.03;2046876;29;20199;-61
2022/05/13 03:20:32;;;;;;;14.50;7.18;;;;;;;-143.53;100.00;58366.03;2047745;28;20219;-62
2022/05/13 03:21:33;;;;;;;12.40;6.35;;;;;;;-143.53;100.00;58366.03;2048310;28;20220;-61
2022/05/13 03:22:35;;;;;;;9.38;6.60;;;;;;;-143.53;100.00;58366.03;2047744;28;20611;-62
2022/05/13 03:23:37;;;;;;;10.13;6.32;;;;;;;-143.53;100.00;58366.03;2048603;28;20203;-62
2022/05/13 03:24:39;;;;;;;15.48;7.65;;;;;;;-143.53;100.00;58366.03;2044972;28;20211;-61
2022/05/13 03:25:40;;;;;;;11.65;7.22;;;;;;;-143.53;100.00;58366.03;2044868;28;20200;-61
2022/05/13 03:26:41;;;;;;;20.05;7.93;;;;;;;-143.53;100.00;58366.03;2044296;28;20224;-61
2022/05/13 03:27:43;;;;;;;8.65;6.68;;;;;;;-143.53;100.00;58366.03;2047240;29;20668;-62
2022/05/13 03:28:45;;;;;;;12.40;6.43;;;;;;;-143.53;100.00;58366.03;2048597;28;20226;-62
2022/05/13 03:29:47;;;;;;;8.85;7.05;;;;;;;-143.53;100.00;58366.03;2047494;29;20210;-61
2022/05/13 03:30:50;;;;;;;11.93;6.93;;;;;;;-143.53;100.00;58366.03;2048564;28;20200;-61
2022/05/13 03:31:51;;;;;;;15.65;6.35;;;;;;;-143.53;100.00;58366.03;2038018;28;20746;-61
2022/05/13 03:32:54;;;;;;;12.65;7.18;;;;;;;-143.53;100.00;58366.03;2046357;29;20215;-62
2022/05/13 03:33:55;;;;;;;13.13;6.88;;;;;;;-143.53;100.00;58366.03;2047573;29;20196;-61
2022/05/13 03:34:57;;;;;;;15.02;7.30;;;;;;;-143.53;100.00;58366.03;2048569;28;20225;-61
2022/05/13 03:35:58;;;;;;;11.45;7.15;;;;;;;-143.53;100.00;58366.03;2047822;28;20199;-61
2022/05/13 03:37:00;;;;;;;17.45;7.18;;;;;;;-143.53;100.00;58366.03;2048316;28;20226;-61
2022/05/13 03:38:01;;;;;;;11.65;6.55;;;;;;;-143.53;100.00;58366.03;2046644;29;20204;-61
2022/05/13 03:39:04;;;;;;;15.40;7.97;;;;;;;-143.53;100.00;58366.03;2048600;28;20199;-61
2022/05/13 03:40:06;;;;;;;17.77;8.07;;;;;;;-143.53;100.00;58366.03;2048514;28;20284;-61
2022/05/13 03:41:09;;;;;;;15.52;6.88;;;;;;;-143.53;100.00;58366.03;2048062;28;20211;-61
2022/05/13 03:42:11;;;;;;;12.40;7.32;;;;;;;-143.53;100.00;58366.03;2048078;29;20195;-61
2022/05/13 03:43:12;;;;;;;13.70;7.53;;;;;;;-143.53;100.00;58366.03;2046261;29;20239;-61
2022/05/13 03:44:15;;;;;;;15.48;6.55;;;;;;;-143.53;100.00;58366.03;2047646;28;20203;-61
2022/05/13 03:45:18;;;;;;;12.20;7.00;;;;;;;-143.53;100.00;58366.03;2047028;29;20208;-62
2022/05/13 03:46:20;;;;;;;13.35;7.45;;;;;;;-143.53;100.00;58366.03;2047223;28;20231;-62
2022/05/13 03:47:21;;;;;;;10.45;6.90;;;;;;;-143.53;100.00;58366.03;2046705;28;20222;-61
2022/05/13 03:48:23;;;;;;;15.13;7.30;;;;;;;-143.53;100.00;58366.03;2046747;29;20215;-61
2022/05/13 03:49:25;;;;;;;9.45;6.50;;;;;;;-143.53;100.00;58366.03;2047320;28;20719;-61
2022/05/13 03:50:27;;;;;;;17.33;6.93;;;;;;;-143.53;100.00;58366.03;2047588;28;20659;-61
2022/05/13 03:51:29;;;;;;;16.60;7.05;;;;;;;-143.53;100.00;58366.03;2047898;28;20231;-61
2022/05/13 03:52:30;;;;;;;9.02;7.20;;;;;;;-143.53;100.00;58366.03;2048547;28;20202;-61
2022/05/13 03:53:32;;;;;;;12.23;6.68;;;;;;;-143.53;100.00;58366.03;2048517;28;20211;-62
2022/05/13 03:54:34;;;;;;;15.85;6.68;;;;;;;-143.53;100.00;58366.03;2048059;29;20567;-61
2022/05/13 03:55:36;;;;;;;16.42;6.93;;;;;;;-143.53;100.00;58366.03;2048573;28;20221;-61
2022/05/13 03:56:37;;;;;;;14.05;7.38;;;;;;;-143.53;100.00;58366.03;2045840;28;20230;-61
2022/05/13 03:57:39;;;;;;;11.98;5.43;;;;;;;-143.53;100.00;58366.03;2048171;28;20207;-61
2022/05/13 03:58:42;;;;;;;13.57;5.90;;;;;;;-143.53;100.00;58366.03;2048230;28;20323;-61
2022/05/13 03:59:43;;;;;;;11.77;5.15;;;;;;;-143.53;100.00;58366.03;2048326;28;20202;-62
2022/05/13 04:00:46;;;;;;;11.98;5.95;;;;;;;-143.53;100.00;58366.03;2047938;29;20202;-61
2022/05/13 04:01:48;;;;;;;16.92;7.20;;;;;;;-143.53;100.00;58366.03;2046575;28;20252;-61
2022/05/13 04:02:49;;;;;;;12.73;6.05;;;;;;;-143.53;100.00;58366.03;2047136;28;20774;-61
2022/05/13 04:03:51;;;;;;;14.98;6.25;;;;;;;-143.53;100.00;58366.03;2047324;28;20207;-61
2022/05/13 04:08:56;;;;;;;9.20;6.40;;;;;;;-143.53;100.00;58366.03;2047893;29;20215;-61
2022/05/13 04:09:57;;;;;;;9.60;5.82;;;;;;;-143.53;100.00;58366.03;2047195;29;20210;-61
2022/05/13 04:10:59;;;;;;;13.23;5.40;;;;;;;-143.53;100.00;58366.03;2045486;28;20196;-61
2022/05/13 04:16:06;;;;;;;11.57;6.75;;;;;;;-143.53;100.00;58366.03;2047490;28;20226;-61
2022/05/13 04:17:07;;;;;;;16.00;6.53;;;;;;;-143.53;100.00;58366.03;2047245;29;20668;-62
2022/05/13 04:18:09;;;;;;;13.55;5.50;;;;;;;-143.53;100.00;58366.03;2048579;28;20207;-61
2022/05/13 04:19:12;;;;;;;9.05;6.18;;;;;;;-143.53;100.00;58366.03;2048331;28;20696;-61
2022/05/13 04:20:21;;;;;;;7.30;5.05;;;;;;;-143.53;100.00;58366.03;2051594;28;20242;-61
2022/05/13 04:21:29;;;;;;;9.52;5.78;;;;;;;-143.53;100.00;58366.03;2044262;29;20220;-61
2022/05/13 04:22:31;;;;;;;10.13;5.60;;;;;;;-143.53;100.00;58366.03;2047777;29;20235;-61
2022/05/13 04:23:35;;;;;;;9.18;5.60;;;;;;;-143.53;100.00;58366.03;2046548;29;20219;-61
2022/05/13 04:24:37;;;;;;;10.43;5.18;;;;;;;-143.53;100.00;58366.03;2048409;28;20211;-61
2022/05/13 04:25:38;;;;;;;10.63;5.00;;;;;;;-143.53;100.00;58366.03;2048441;28;20292;-61
2022/05/13 04:26:40;;;;;;;7.22;4.90;;;;;;;-143.53;100.00;58366.03;2047872;28;20605;-61
2022/05/13 04:27:41;;;;;;;13.82;4.90;;;;;;;-143.53;100.00;58366.03;2047963;28;20226;-61
2022/05/13 04:28:45;;;;;;;11.80;5.10;;;;;;;-143.53;100.00;58366.03;2048472;28;20213;-61
2022/05/13 04:29:46;;;;;;;8.30;4.63;;;;;;;-143.53;100.00;58366.03;2048096;29;20199;-62
2022/05/13 04:30:48;;;;;;;14.05;5.32;;;;;;;-143.53;100.00;58366.03;2048556;28;20200;-61
2022/05/13 04:31:49;;;;;;;7.95;4.95;;;;;;;-143.53;100.00;58366.03;2047914;28;20227;-61
2022/05/13 04:32:51;;;;;;;17.88;5.68;;;;;;;-143.53;100.00;58366.03;2048389;28;20667;-62
2022/05/13 04:33:54;;;;;;;7.80;4.90;;;;;;;-143.53;100.00;58366.03;2047045;28;20211;-60
2022/05/13 04:34:55;;;;;;;12.63;5.00;;;;;;;-143.53;100.00;58366.03;2047754;28;20442;-60
2022/05/13 04:35:57;;;;;;;7.18;4.70;;;;;;;-143.53;100.00;58366.03;2047656;28;20204;-60
2022/05/13 04:36:58;;;;;;;8.70;3.97;;;;;;;-143.53;100.00;58366.03;2045366;28;20820;-60
2022/05/13 04:37:59;;;;;;;10.32;5.25;;;;;;;-143.53;100.00;58366.03;2048670;28;20574;-60
2022/05/13 04:39:02;;;;;;;11.68;5.43;;;;;;;-143.53;100.00;58366.03;2048381;28;20211;-60
2022/05/13 04:40:04;;;;;;;10.02;5.10;;;;;;;-143.53;100.00;58366.03;2045267;28;20242;-60
2022/05/13 04:43:46;;;;;;;8.27;5.00;;;;;;;-143.53;100.00;58366.03;2047823;29;20210;-60
2022/05/13 04:44:48;;;;;;;9.80;4.70;;;;;;;-143.53;100.00;58366.03;2048341;28;20204;-60
2022/05/13 04:45:50;;;;;;;14.50;5.68;;;;;;;-143.53;100.00;58366.03;2045273;28;20200;-60
2022/05/13 04:46:51;;;;;;;16.02;5.90;;;;;;;-143.53;100.00;58366.03;2037719;28;20248;-60
2022/05/13 04:48:17;;;;;;;11.02;5.20;;;;;;;-143.53;100.00;58366.03;2046223;28;20215;-60
2022/05/13 04:49:19;;;;;;;7.93;4.93;;;;;;;-143.53;100.00;58366.03;2047759;29;20206;-57
2022/05/13 04:50:26;;;;;;;9.65;4.90;;;;;;;-143.53;100.00;58366.03;2047817;29;20536;-58
2022/05/13 04:51:28;;;;;;;7.05;5.07;;;;;;;-143.53;100.00;58366.03;2047494;28;20584;-57
2022/05/13 04:52:29;;;;;;;5.15;4.20;;;;;;;-143.53;100.00;58366.03;2047684;28;20199;-57
2022/05/13 04:53:36;;;;;;;13.73;5.13;;;;;;;-143.53;100.00;58366.03;2047615;28;20282;-58
2022/05/13 04:54:38;;;;;;;10.80;5.70;;;;;;;-143.53;100.00;58366.03;2047307;28;20207;-57
2022/05/13 04:55:40;;;;;;;9.35;4.82;;;;;;;-143.53;100.00;58366.03;2047141;28;20200;-58